BCN weather

Barcelona International Airport
Barcelona, Catalonia, Spain

Public forecast

Using degrees Celsius for public forecast. Weather courtesy of forecast.io.

METAR (pilot weather report)

Retrieved 2018/04/26 20:30 UTC (0 seconds ago):

LEBL 262030Z 24011KT 9999 FEW025 17/14 Q1016 NOSIG

TAF (pilot weather forecast)

Retrieved 2018/04/26 18:27 UTC (2 hours ago):

TAF LEBL 261700Z 2618/2718 24009KT 9999 FEW030 TX21/2712Z TN15/2706Z TEMPO 2622/2706 VRB04KT TEMPO 2710/2716 20012G24KT PROB40 TEMPO 2712/2718 FEW030CB